sensor_id;sensor_type;location;lat;lon;timestamp;pressure;altitude;pressure_sealevel;temperature;humidity
6024;BME280;3040;42.654;23.296;2023-02-16T00:01:24;95436.28;;;3.25;69.85
6024;BME280;3040;42.654;23.296;2023-02-16T00:03:53;95377.06;;;2.57;71.01
6024;BME280;3040;42.654;23.296;2023-02-16T00:06:20;95437.31;;;2.99;70.81
6024;BME280;3040;42.654;23.296;2023-02-16T00:08:49;95446.00;;;3.00;70.90
6024;BME280;3040;42.654;23.296;2023-02-16T00:11:22;95439.94;;;2.94;71.08
6024;BME280;3040;42.654;23.296;2023-02-16T00:14:10;95438.13;;;3.00;71.57
6024;BME280;3040;42.654;23.296;2023-02-16T00:16:37;95403.66;;;2.86;71.64
6024;BME280;3040;42.654;23.296;2023-02-16T00:19:26;95442.81;;;2.98;71.54
6024;BME280;3040;42.654;23.296;2023-02-16T00:21:55;95436.00;;;3.02;71.17
6024;BME280;3040;42.654;23.296;2023-02-16T00:24:23;95438.03;;;2.74;73.27
6024;BME280;3040;42.654;23.296;2023-02-16T00:26:51;95437.31;;;2.99;72.68
6024;BME280;3040;42.654;23.296;2023-02-16T00:29:24;95431.28;;;3.09;71.27
6024;BME280;3040;42.654;23.296;2023-02-16T00:31:51;95433.50;;;2.60;71.84
6024;BME280;3040;42.654;23.296;2023-02-16T00:34:28;95433.56;;;2.13;74.94
6024;BME280;3040;42.654;23.296;2023-02-16T00:36:56;95435.16;;;2.14;75.39
6024;BME280;3040;42.654;23.296;2023-02-16T00:39:24;95432.44;;;1.25;78.66
6024;BME280;3040;42.654;23.296;2023-02-16T00:41:52;95434.34;;;1.66;79.07
6024;BME280;3040;42.654;23.296;2023-02-16T00:44:26;95409.22;;;1.06;79.17
6024;BME280;3040;42.654;23.296;2023-02-16T00:46:54;95427.31;;;1.40;79.48
6024;BME280;3040;42.654;23.296;2023-02-16T00:49:21;95435.50;;;1.80;78.67
6024;BME280;3040;42.654;23.296;2023-02-16T00:51:49;95321.88;;;1.28;77.22
6024;BME280;3040;42.654;23.296;2023-02-16T00:54:16;95401.25;;;2.02;76.39
6024;BME280;3040;42.654;23.296;2023-02-16T00:56:43;95431.06;;;2.38;75.47
6024;BME280;3040;42.654;23.296;2023-02-16T00:59:14;95433.78;;;2.53;73.29
6024;BME280;3040;42.654;23.296;2023-02-16T01:01:44;95429.94;;;2.24;74.37
6024;BME280;3040;42.654;23.296;2023-02-16T01:04:17;95431.63;;;2.45;73.24
6024;BME280;3040;42.654;23.296;2023-02-16T01:06:45;95425.91;;;1.64;76.94
6024;BME280;3040;42.654;23.296;2023-02-16T01:09:29;95409.41;;;1.27;78.42
6024;BME280;3040;42.654;23.296;2023-02-16T01:12:14;95425.44;;;1.67;77.45
6024;BME280;3040;42.654;23.296;2023-02-16T01:14:45;95426.69;;;2.01;76.46
6024;BME280;3040;42.654;23.296;2023-02-16T01:17:14;95402.44;;;1.79;75.67
6024;BME280;3040;42.654;23.296;2023-02-16T01:19:41;95418.38;;;2.20;75.36
6024;BME280;3040;42.654;23.296;2023-02-16T01:22:08;95367.94;;;2.08;75.53
6024;BME280;3040;42.654;23.296;2023-02-16T01:24:35;95410.72;;;1.66;76.04
6024;BME280;3040;42.654;23.296;2023-02-16T01:27:02;95409.44;;;1.69;77.65
6024;BME280;3040;42.654;23.296;2023-02-16T01:29:29;95400.69;;;1.53;77.66
6024;BME280;3040;42.654;23.296;2023-02-16T01:31:56;95397.25;;;1.89;76.31
6024;BME280;3040;42.654;23.296;2023-02-16T01:34:24;95404.97;;;1.00;79.16
6024;BME280;3040;42.654;23.296;2023-02-16T01:36:51;95395.88;;;1.45;78.78
6024;BME280;3040;42.654;23.296;2023-02-16T01:39:19;95399.63;;;1.54;77.48
6024;BME280;3040;42.654;23.296;2023-02-16T01:42:03;95395.00;;;1.66;78.23
6024;BME280;3040;42.654;23.296;2023-02-16T01:44:38;95375.69;;;1.82;76.64
6024;BME280;3040;42.654;23.296;2023-02-16T01:47:18;95396.03;;;2.12;74.21
6024;BME280;3040;42.654;23.296;2023-02-16T01:49:51;95390.00;;;2.12;75.29
6024;BME280;3040;42.654;23.296;2023-02-16T01:52:24;95389.47;;;2.04;73.98
6024;BME280;3040;42.654;23.296;2023-02-16T01:54:56;95380.94;;;1.08;78.64
6024;BME280;3040;42.654;23.296;2023-02-16T01:57:36;95373.38;;;1.44;78.18
6024;BME280;3040;42.654;23.296;2023-02-16T02:00:13;95382.47;;;1.73;76.39
6024;BME280;3040;42.654;23.296;2023-02-16T02:02:42;95387.28;;;1.86;76.88
6024;BME280;3040;42.654;23.296;2023-02-16T02:05:21;95384.25;;;2.15;76.40
6024;BME280;3040;42.654;23.296;2023-02-16T02:08:11;95364.75;;;1.95;73.81
6024;BME280;3040;42.654;23.296;2023-02-16T02:10:45;95378.41;;;1.18;79.10
6024;BME280;3040;42.654;23.296;2023-02-16T02:13:19;95381.50;;;1.47;79.22
6024;BME280;3040;42.654;23.296;2023-02-16T02:15:47;95353.00;;;1.56;76.32
6024;BME280;3040;42.654;23.296;2023-02-16T02:18:14;95360.47;;;1.79;74.59
6024;BME280;3040;42.654;23.296;2023-02-16T02:20:53;95389.03;;;1.39;76.29
6024;BME280;3040;42.654;23.296;2023-02-16T02:23:52;95381.88;;;1.66;76.80
6024;BME280;3040;42.654;23.296;2023-02-16T02:26:52;95391.09;;;1.69;74.21
6024;BME280;3040;42.654;23.296;2023-02-16T02:29:53;95374.06;;;1.71;74.28
6024;BME280;3040;42.654;23.296;2023-02-16T02:32:32;95377.09;;;1.53;75.28
6024;BME280;3040;42.654;23.296;2023-02-16T02:35:16;95387.09;;;1.61;74.87
6024;BME280;3040;42.654;23.296;2023-02-16T02:37:49;95371.63;;;1.59;74.91
6024;BME280;3040;42.654;23.296;2023-02-16T02:40:28;95371.78;;;1.85;74.53
6024;BME280;3040;42.654;23.296;2023-02-16T02:43:03;95374.78;;;1.25;75.16
6024;BME280;3040;42.654;23.296;2023-02-16T02:45:35;95366.47;;;0.74;79.20
6024;BME280;3040;42.654;23.296;2023-02-16T02:48:02;95376.50;;;0.55;81.01
6024;BME280;3040;42.654;23.296;2023-02-16T02:50:41;95381.25;;;0.85;80.98
6024;BME280;3040;42.654;23.296;2023-02-16T02:53:31;95375.06;;;0.43;81.94
6024;BME280;3040;42.654;23.296;2023-02-16T02:56:01;95365.72;;;1.05;80.08
6024;BME280;3040;42.654;23.296;2023-02-16T02:58:49;95381.75;;;1.46;77.88
6024;BME280;3040;42.654;23.296;2023-02-16T03:01:38;95380.16;;;1.45;76.19
6024;BME280;3040;42.654;23.296;2023-02-16T03:04:10;95375.91;;;1.76;75.21
6024;BME280;3040;42.654;23.296;2023-02-16T03:06:43;95391.53;;;2.02;73.53
6024;BME280;3040;42.654;23.296;2023-02-16T03:09:13;95392.22;;;1.83;73.79
6024;BME280;3040;42.654;23.296;2023-02-16T03:11:42;95399.91;;;1.20;75.22
6024;BME280;3040;42.654;23.296;2023-02-16T03:14:31;95394.78;;;1.36;76.56
6024;BME280;3040;42.654;23.296;2023-02-16T03:17:01;95392.41;;;1.34;76.31
6024;BME280;3040;42.654;23.296;2023-02-16T03:19:50;95386.63;;;1.69;74.88
6024;BME280;3040;42.654;23.296;2023-02-16T03:22:36;95382.88;;;1.97;74.33
6024;BME280;3040;42.654;23.296;2023-02-16T03:25:22;95369.72;;;1.92;71.50
6024;BME280;3040;42.654;23.296;2023-02-16T03:28:09;95377.69;;;2.17;71.67
6024;BME280;3040;42.654;23.296;2023-02-16T03:30:56;95365.78;;;1.94;72.93
6024;BME280;3040;42.654;23.296;2023-02-16T03:33:26;95378.66;;;2.01;72.90
6024;BME280;3040;42.654;23.296;2023-02-16T03:35:55;95373.75;;;2.10;72.85
6024;BME280;3040;42.654;23.296;2023-02-16T03:38:23;95373.75;;;2.15;72.43
6024;BME280;3040;42.654;23.296;2023-02-16T03:40:51;95374.03;;;2.18;72.41
6024;BME280;3040;42.654;23.296;2023-02-16T03:43:17;95378.44;;;2.08;72.02
6024;BME280;3040;42.654;23.296;2023-02-16T03:45:45;95377.38;;;1.98;72.09
6024;BME280;3040;42.654;23.296;2023-02-16T03:48:13;95387.59;;;2.00;72.72
6024;BME280;3040;42.654;23.296;2023-02-16T03:50:40;95374.66;;;1.88;72.57
6024;BME280;3040;42.654;23.296;2023-02-16T03:53:07;95372.63;;;2.00;72.91
6024;BME280;3040;42.654;23.296;2023-02-16T03:55:34;95369.53;;;2.09;73.21
6024;BME280;3040;42.654;23.296;2023-02-16T03:58:01;95379.50;;;2.12;72.14
6024;BME280;3040;42.654;23.296;2023-02-16T04:00:29;95380.03;;;2.14;72.37
6024;BME280;3040;42.654;23.296;2023-02-16T04:02:56;95372.25;;;2.29;72.65
6024;BME280;3040;42.654;23.296;2023-02-16T04:05:24;95373.31;;;2.33;71.44
6024;BME280;3040;42.654;23.296;2023-02-16T04:07:51;95374.84;;;1.72;72.29
6024;BME280;3040;42.654;23.296;2023-02-16T04:10:18;95370.78;;;1.96;72.61
6024;BME280;3040;42.654;23.296;2023-02-16T04:12:45;95351.94;;;2.04;71.48
6024;BME280;3040;42.654;23.296;2023-02-16T04:15:15;95367.75;;;2.24;70.76
6024;BME280;3040;42.654;23.296;2023-02-16T04:17:42;95368.06;;;2.33;68.96
6024;BME280;3040;42.654;23.296;2023-02-16T04:20:12;95365.81;;;1.99;71.10
6024;BME280;3040;42.654;23.296;2023-02-16T04:22:40;95361.13;;;2.07;71.55
6024;BME280;3040;42.654;23.296;2023-02-16T04:25:08;95218.78;;;1.07;71.45
6024;BME280;3040;42.654;23.296;2023-02-16T04:27:35;95367.47;;;2.11;71.39
6024;BME280;3040;42.654;23.296;2023-02-16T04:30:04;95360.41;;;2.21;70.81
6024;BME280;3040;42.654;23.296;2023-02-16T04:32:31;95323.88;;;2.10;69.80
6024;BME280;3040;42.654;23.296;2023-02-16T04:34:58;95360.75;;;2.40;69.28
6024;BME280;3040;42.654;23.296;2023-02-16T04:37:25;95360.75;;;2.40;69.42
6024;BME280;3040;42.654;23.296;2023-02-16T04:39:53;95359.16;;;2.34;69.28
6024;BME280;3040;42.654;23.296;2023-02-16T04:42:20;95369.91;;;2.37;69.82
6024;BME280;3040;42.654;23.296;2023-02-16T04:44:47;95372.81;;;2.41;69.62
6024;BME280;3040;42.654;23.296;2023-02-16T04:47:14;95336.09;;;1.37;72.81
6024;BME280;3040;42.654;23.296;2023-02-16T04:49:41;95365.59;;;1.22;75.10
6024;BME280;3040;42.654;23.296;2023-02-16T04:52:13;95364.25;;;1.14;75.43
6024;BME280;3040;42.654;23.296;2023-02-16T04:54:40;95362.31;;;1.05;77.30
6024;BME280;3040;42.654;23.296;2023-02-16T04:57:10;95374.41;;;1.11;76.56
6024;BME280;3040;42.654;23.296;2023-02-16T04:59:37;95376.41;;;1.31;76.34
6024;BME280;3040;42.654;23.296;2023-02-16T05:02:07;95377.66;;;1.60;74.56
6024;BME280;3040;42.654;23.296;2023-02-16T05:04:34;95381.47;;;1.79;73.66
6024;BME280;3040;42.654;23.296;2023-02-16T05:07:01;95376.81;;;1.91;72.98
6024;BME280;3040;42.654;23.296;2023-02-16T05:09:28;95381.28;;;1.96;71.91
6024;BME280;3040;42.654;23.296;2023-02-16T05:11:55;95348.63;;;1.72;72.15
6024;BME280;3040;42.654;23.296;2023-02-16T05:14:40;95383.66;;;1.97;71.47
6024;BME280;3040;42.654;23.296;2023-02-16T05:17:08;95392.03;;;1.99;70.56
6024;BME280;3040;42.654;23.296;2023-02-16T05:19:36;95326.84;;;1.66;70.40
6024;BME280;3040;42.654;23.296;2023-02-16T05:22:03;95374.75;;;1.98;70.02
6024;BME280;3040;42.654;23.296;2023-02-16T05:24:30;95394.78;;;2.20;69.75
6024;BME280;3040;42.654;23.296;2023-02-16T05:26:59;95398.75;;;2.27;69.26
6024;BME280;3040;42.654;23.296;2023-02-16T05:29:25;95394.28;;;2.28;69.67
6024;BME280;3040;42.654;23.296;2023-02-16T05:31:54;95399.00;;;2.31;69.59
6024;BME280;3040;42.654;23.296;2023-02-16T05:34:21;95395.91;;;2.34;69.70
6024;BME280;3040;42.654;23.296;2023-02-16T05:36:48;95402.97;;;2.28;70.23
6024;BME280;3040;42.654;23.296;2023-02-16T05:39:15;95409.47;;;2.21;70.10
6024;BME280;3040;42.654;23.296;2023-02-16T05:41:42;95396.59;;;2.14;70.61
6024;BME280;3040;42.654;23.296;2023-02-16T05:44:09;95354.28;;;2.05;70.53
6024;BME280;3040;42.654;23.296;2023-02-16T05:46:38;95403.53;;;2.40;70.48
6024;BME280;3040;42.654;23.296;2023-02-16T05:49:07;95404.06;;;2.47;69.61
6024;BME280;3040;42.654;23.296;2023-02-16T05:51:35;95383.78;;;2.28;69.36
6024;BME280;3040;42.654;23.296;2023-02-16T05:54:02;95412.47;;;2.50;69.75
6024;BME280;3040;42.654;23.296;2023-02-16T05:56:30;95401.75;;;2.56;69.71
6024;BME280;3040;42.654;23.296;2023-02-16T05:58:57;95402.31;;;2.68;69.20
6024;BME280;3040;42.654;23.296;2023-02-16T06:01:25;95404.94;;;2.73;68.86
6024;BME280;3040;42.654;23.296;2023-02-16T06:03:52;95408.38;;;2.84;68.61
6024;BME280;3040;42.654;23.296;2023-02-16T06:06:20;95414.47;;;2.95;68.20
6024;BME280;3040;42.654;23.296;2023-02-16T06:08:47;95414.47;;;3.00;67.52
6024;BME280;3040;42.654;23.296;2023-02-16T06:11:14;95422.34;;;3.00;67.48
6024;BME280;3040;42.654;23.296;2023-02-16T06:14:00;95427.06;;;3.03;67.90
6024;BME280;3040;42.654;23.296;2023-02-16T06:16:29;95417.09;;;3.00;68.16
6024;BME280;3040;42.654;23.296;2023-02-16T06:18:59;95405.53;;;3.01;68.22
6024;BME280;3040;42.654;23.296;2023-02-16T06:21:28;95435.00;;;3.18;68.05
6024;BME280;3040;42.654;23.296;2023-02-16T06:23:55;95435.53;;;3.25;68.04
6024;BME280;3040;42.654;23.296;2023-02-16T06:26:23;95432.38;;;3.33;68.09
6024;BME280;3040;42.654;23.296;2023-02-16T06:28:50;95427.13;;;3.43;67.91
6024;BME280;3040;42.654;23.296;2023-02-16T06:31:17;95452.63;;;3.53;67.58
6024;BME280;3040;42.654;23.296;2023-02-16T06:33:45;95421.59;;;3.45;67.56
6024;BME280;3040;42.654;23.296;2023-02-16T06:36:12;95416.88;;;3.47;66.78
6024;BME280;3040;42.654;23.296;2023-02-16T06:38:41;95447.13;;;3.59;66.96
6024;BME280;3040;42.654;23.296;2023-02-16T06:41:08;95449.22;;;3.67;67.16
6024;BME280;3040;42.654;23.296;2023-02-16T06:43:35;95453.44;;;3.79;66.66
6024;BME280;3040;42.654;23.296;2023-02-16T06:46:02;95448.69;;;3.91;67.28
6024;BME280;3040;42.654;23.296;2023-02-16T06:48:29;95432.88;;;3.81;66.28
6024;BME280;3040;42.654;23.296;2023-02-16T06:50:56;95452.59;;;4.08;65.87
6024;BME280;3040;42.654;23.296;2023-02-16T06:53:23;95455.47;;;4.22;65.77
6024;BME280;3040;42.654;23.296;2023-02-16T06:55:52;95457.81;;;4.29;65.21
6024;BME280;3040;42.654;23.296;2023-02-16T06:58:19;95437.56;;;4.24;64.58
6024;BME280;3040;42.654;23.296;2023-02-16T07:00:46;95444.97;;;4.12;65.31
6024;BME280;3040;42.654;23.296;2023-02-16T07:03:13;95450.22;;;4.12;66.13
6024;BME280;3040;42.654;23.296;2023-02-16T07:05:40;95450.69;;;4.39;65.41
6024;BME280;3040;42.654;23.296;2023-02-16T07:08:08;95449.59;;;4.50;65.25
6024;BME280;3040;42.654;23.296;2023-02-16T07:10:35;95450.59;;;4.70;65.69
6024;BME280;3040;42.654;23.296;2023-02-16T07:13:03;95447.09;;;4.84;64.72
6024;BME280;3040;42.654;23.296;2023-02-16T07:15:30;95438.31;;;4.99;64.38
6024;BME280;3040;42.654;23.296;2023-02-16T07:17:57;95440.22;;;5.32;64.71
6024;BME280;3040;42.654;23.296;2023-02-16T07:20:24;95443.53;;;5.53;63.82
6024;BME280;3040;42.654;23.296;2023-02-16T07:22:52;95429.19;;;5.64;63.31
6024;BME280;3040;42.654;23.296;2023-02-16T07:25:19;95423.50;;;5.81;62.52
6024;BME280;3040;42.654;23.296;2023-02-16T07:27:45;95428.69;;;5.91;62.78
6024;BME280;3040;42.654;23.296;2023-02-16T07:30:15;95411.66;;;6.07;61.25
6024;BME280;3040;42.654;23.296;2023-02-16T07:32:42;95393.34;;;6.16;60.98
6024;BME280;3040;42.654;23.296;2023-02-16T07:35:08;95429.09;;;6.56;60.68
6024;BME280;3040;42.654;23.296;2023-02-16T07:37:35;95426.06;;;6.68;58.80
6024;BME280;3040;42.654;23.296;2023-02-16T07:40:03;95425.78;;;6.88;59.07
6024;BME280;3040;42.654;23.296;2023-02-16T07:42:30;95413.63;;;7.11;58.84
6024;BME280;3040;42.654;23.296;2023-02-16T07:44:57;95413.53;;;7.34;59.15
6024;BME280;3040;42.654;23.296;2023-02-16T07:47:26;95423.66;;;7.65;57.48
6024;BME280;3040;42.654;23.296;2023-02-16T07:49:53;95426.66;;;7.91;55.89
6024;BME280;3040;42.654;23.296;2023-02-16T07:52:20;95426.59;;;7.45;56.59
6024;BME280;3040;42.654;23.296;2023-02-16T07:54:46;95158.16;;;6.07;57.36
6024;BME280;3040;42.654;23.296;2023-02-16T07:57:13;95413.34;;;8.09;56.00
6024;BME280;3040;42.654;23.296;2023-02-16T07:59:40;95437.28;;;8.50;55.07
6024;BME280;3040;42.654;23.296;2023-02-16T08:02:14;95434.75;;;8.73;53.88
6024;BME280;3040;42.654;23.296;2023-02-16T08:04:42;95427.75;;;8.77;52.49
6024;BME280;3040;42.654;23.296;2023-02-16T08:07:10;95444.25;;;9.01;52.60
6024;BME280;3040;42.654;23.296;2023-02-16T08:09:37;95445.56;;;9.39;52.19
6024;BME280;3040;42.654;23.296;2023-02-16T08:12:07;95440.13;;;9.67;50.77
6024;BME280;3040;42.654;23.296;2023-02-16T08:14:35;95438.44;;;9.93;51.21
6024;BME280;3040;42.654;23.296;2023-02-16T08:17:03;95439.03;;;10.35;48.98
6024;BME280;3040;42.654;23.296;2023-02-16T08:19:30;95424.38;;;10.46;48.58
6024;BME280;3040;42.654;23.296;2023-02-16T08:21:59;95455.88;;;11.00;45.97
6024;BME280;3040;42.654;23.296;2023-02-16T08:24:27;95433.22;;;11.20;46.16
6024;BME280;3040;42.654;23.296;2023-02-16T08:26:55;95459.09;;;11.54;45.39
6024;BME280;3040;42.654;23.296;2023-02-16T08:29:22;95450.00;;;11.55;44.85
6024;BME280;3040;42.654;23.296;2023-02-16T08:31:50;95451.09;;;11.71;43.98
6024;BME280;3040;42.654;23.296;2023-02-16T08:34:18;95447.81;;;11.66;44.58
6024;BME280;3040;42.654;23.296;2023-02-16T08:36:50;95447.66;;;11.88;43.72
6024;BME280;3040;42.654;23.296;2023-02-16T08:39:20;95447.63;;;11.71;43.25
6024;BME280;3040;42.654;23.296;2023-02-16T08:41:48;95417.53;;;11.36;44.85
6024;BME280;3040;42.654;23.296;2023-02-16T08:44:16;95440.28;;;11.94;44.58
6024;BME280;3040;42.654;23.296;2023-02-16T08:46:45;95450.66;;;11.87;42.11
6024;BME280;3040;42.654;23.296;2023-02-16T08:49:13;95438.69;;;12.10;42.99
6024;BME280;3040;42.654;23.296;2023-02-16T08:51:42;95361.38;;;12.10;42.58
6024;BME280;3040;42.654;23.296;2023-02-16T08:54:14;95444.78;;;13.03;41.00
6024;BME280;3040;42.654;23.296;2023-02-16T08:56:42;95443.09;;;12.99;41.04
6024;BME280;3040;42.654;23.296;2023-02-16T08:59:11;95441.72;;;13.22;40.86
6024;BME280;3040;42.654;23.296;2023-02-16T09:01:39;95426.69;;;13.38;39.06
6024;BME280;3040;42.654;23.296;2023-02-16T09:04:07;95432.09;;;13.51;40.21
6024;BME280;3040;42.654;23.296;2023-02-16T09:06:36;95435.31;;;13.44;40.44
6024;BME280;3040;42.654;23.296;2023-02-16T09:09:04;95426.53;;;13.14;39.05
6024;BME280;3040;42.654;23.296;2023-02-16T09:11:31;95437.19;;;13.43;39.17
6024;BME280;3040;42.654;23.296;2023-02-16T09:14:00;95454.28;;;13.72;38.89
6024;BME280;3040;42.654;23.296;2023-02-16T09:16:28;95406.41;;;13.08;38.76
6024;BME280;3040;42.654;23.296;2023-02-16T09:18:58;95429.13;;;13.31;39.07
6024;BME280;3040;42.654;23.296;2023-02-16T09:21:28;95378.28;;;13.19;38.57
6024;BME280;3040;42.654;23.296;2023-02-16T09:23:58;95420.72;;;13.95;38.20
6024;BME280;3040;42.654;23.296;2023-02-16T09:26:26;95426.50;;;14.30;37.31
6024;BME280;3040;42.654;23.296;2023-02-16T09:28:56;95418.56;;;14.66;36.82
6024;BME280;3040;42.654;23.296;2023-02-16T09:31:26;95416.69;;;14.79;36.48
6024;BME280;3040;42.654;23.296;2023-02-16T09:33:55;95390.56;;;14.52;37.36
6024;BME280;3040;42.654;23.296;2023-02-16T09:36:22;95375.84;;;14.70;36.21
6024;BME280;3040;42.654;23.296;2023-02-16T09:38:49;95403.91;;;15.37;35.28
6024;BME280;3040;42.654;23.296;2023-02-16T09:41:23;95406.50;;;15.73;33.81
6024;BME280;3040;42.654;23.296;2023-02-16T09:43:56;95405.25;;;15.55;34.29
6024;BME280;3040;42.654;23.296;2023-02-16T09:46:27;95375.50;;;14.84;34.95
6024;BME280;3040;42.654;23.296;2023-02-16T09:48:56;95367.81;;;14.82;35.52
6024;BME280;3040;42.654;23.296;2023-02-16T09:51:26;95400.09;;;15.38;35.21
6024;BME280;3040;42.654;23.296;2023-02-16T09:54:04;95378.44;;;15.55;35.39
6024;BME280;3040;42.654;23.296;2023-02-16T09:56:36;95392.38;;;15.88;34.47
6024;BME280;3040;42.654;23.296;2023-02-16T09:59:09;95399.06;;;16.38;33.16
6024;BME280;3040;42.654;23.296;2023-02-16T10:01:47;95270.88;;;15.88;33.10
6024;BME280;3040;42.654;23.296;2023-02-16T10:04:29;95381.50;;;15.97;32.75
6024;BME280;3040;42.654;23.296;2023-02-16T10:07:13;95375.88;;;15.74;33.49
6024;BME280;3040;42.654;23.296;2023-02-16T10:09:50;95377.34;;;16.00;32.70
6024;BME280;3040;42.654;23.296;2023-02-16T10:12:22;95380.59;;;16.52;33.68
6024;BME280;3040;42.654;23.296;2023-02-16T10:14:52;95373.78;;;16.71;32.72
6024;BME280;3040;42.654;23.296;2023-02-16T10:17:27;95369.22;;;17.06;32.35
6024;BME280;3040;42.654;23.296;2023-02-16T10:20:00;95366.03;;;17.35;31.95
6024;BME280;3040;42.654;23.296;2023-02-16T10:22:32;95367.50;;;17.87;30.97
6024;BME280;3040;42.654;23.296;2023-02-16T10:25:02;95358.50;;;18.21;29.73
6024;BME280;3040;42.654;23.296;2023-02-16T10:27:36;95366.47;;;16.24;32.56
6024;BME280;3040;42.654;23.296;2023-02-16T10:30:11;95363.69;;;16.52;32.50
6024;BME280;3040;42.654;23.296;2023-02-16T10:32:50;95360.66;;;17.00;31.62
6024;BME280;3040;42.654;23.296;2023-02-16T10:35:23;95354.09;;;16.98;31.60
6024;BME280;3040;42.654;23.296;2023-02-16T10:37:58;95353.03;;;17.02;32.10
6024;BME280;3040;42.654;23.296;2023-02-16T10:40:35;95346.94;;;17.40;31.31
6024;BME280;3040;42.654;23.296;2023-02-16T10:43:12;95327.16;;;16.47;32.18
6024;BME280;3040;42.654;23.296;2023-02-16T10:45:45;95341.03;;;16.81;31.48
6024;BME280;3040;42.654;23.296;2023-02-16T10:48:15;95342.25;;;17.57;31.54
6024;BME280;3040;42.654;23.296;2023-02-16T10:50:48;95339.16;;;17.93;31.11
6024;BME280;3040;42.654;23.296;2023-02-16T10:53:20;95344.81;;;18.30;30.49
6024;BME280;3040;42.654;23.296;2023-02-16T10:55:50;95319.97;;;18.17;29.09
6024;BME280;3040;42.654;23.296;2023-02-16T10:58:21;95328.38;;;17.93;30.47
6024;BME280;3040;42.654;23.296;2023-02-16T11:00:55;95326.31;;;18.28;30.61
6024;BME280;3040;42.654;23.296;2023-02-16T11:03:29;95326.41;;;18.81;28.81
6024;BME280;3040;42.654;23.296;2023-02-16T11:06:12;95318.91;;;19.24;28.67
6024;BME280;3040;42.654;23.296;2023-02-16T11:08:46;95311.28;;;19.29;28.40
6024;BME280;3040;42.654;23.296;2023-02-16T11:11:15;95318.69;;;19.66;28.30
6024;BME280;3040;42.654;23.296;2023-02-16T11:13:46;95301.81;;;20.09;27.53
6024;BME280;3040;42.654;23.296;2023-02-16T11:16:19;95293.06;;;19.19;28.14
6024;BME280;3040;42.654;23.296;2023-02-16T11:18:56;95312.97;;;20.08;26.98
6024;BME280;3040;42.654;23.296;2023-02-16T11:21:42;95307.00;;;20.28;26.19
6024;BME280;3040;42.654;23.296;2023-02-16T11:24:12;95302.50;;;19.99;26.54
6024;BME280;3040;42.654;23.296;2023-02-16T11:26:39;95297.25;;;20.17;26.39
6024;BME280;3040;42.654;23.296;2023-02-16T11:29:17;95291.38;;;20.08;26.07
6024;BME280;3040;42.654;23.296;2023-02-16T11:31:44;95293.41;;;20.18;26.87
6024;BME280;3040;42.654;23.296;2023-02-16T11:34:20;95292.31;;;19.85;26.71
6024;BME280;3040;42.654;23.296;2023-02-16T11:37:00;95279.91;;;20.18;26.81
6024;BME280;3040;42.654;23.296;2023-02-16T11:39:33;95279.00;;;20.03;26.76
6024;BME280;3040;42.654;23.296;2023-02-16T11:42:03;95266.41;;;20.21;26.57
6024;BME280;3040;42.654;23.296;2023-02-16T11:44:34;95286.78;;;20.56;26.44
6024;BME280;3040;42.654;23.296;2023-02-16T11:47:05;95272.53;;;20.55;26.54
6024;BME280;3040;42.654;23.296;2023-02-16T11:49:36;95287.91;;;20.48;26.31
6024;BME280;3040;42.654;23.296;2023-02-16T11:52:24;95283.00;;;20.60;25.95
6024;BME280;3040;42.654;23.296;2023-02-16T11:54:55;95278.41;;;20.24;26.18
6024;BME280;3040;42.654;23.296;2023-02-16T11:57:24;95262.56;;;20.19;26.22
6024;BME280;3040;42.654;23.296;2023-02-16T11:59:53;95286.88;;;20.22;26.47
6024;BME280;3040;42.654;23.296;2023-02-16T12:02:34;95269.75;;;20.08;26.54
6024;BME280;3040;42.654;23.296;2023-02-16T12:05:19;95268.81;;;20.78;25.70
6024;BME280;3040;42.654;23.296;2023-02-16T12:08:03;95243.75;;;20.88;25.79
6024;BME280;3040;42.654;23.296;2023-02-16T12:10:37;95250.91;;;21.24;25.35
6024;BME280;3040;42.654;23.296;2023-02-16T12:13:12;95259.47;;;21.33;24.39
6024;BME280;3040;42.654;23.296;2023-02-16T12:15:47;95250.50;;;20.53;25.18
6024;BME280;3040;42.654;23.296;2023-02-16T12:18:25;95244.53;;;19.89;26.23
6024;BME280;3040;42.654;23.296;2023-02-16T12:21:01;95203.13;;;19.38;27.57
6024;BME280;3040;42.654;23.296;2023-02-16T12:23:36;95240.94;;;20.19;26.60
6024;BME280;3040;42.654;23.296;2023-02-16T12:26:18;95230.31;;;20.37;26.33
6024;BME280;3040;42.654;23.296;2023-02-16T12:28:58;95233.56;;;20.63;25.18
6024;BME280;3040;42.654;23.296;2023-02-16T12:31:34;95226.88;;;21.12;24.71
6024;BME280;3040;42.654;23.296;2023-02-16T12:34:27;95227.00;;;20.64;24.75
6024;BME280;3040;42.654;23.296;2023-02-16T12:37:03;95206.28;;;20.31;25.34
6024;BME280;3040;42.654;23.296;2023-02-16T12:39:39;95221.59;;;20.13;25.88
6024;BME280;3040;42.654;23.296;2023-02-16T12:42:21;95217.91;;;19.88;26.27
6024;BME280;3040;42.654;23.296;2023-02-16T12:44:56;95208.78;;;19.63;26.10
6024;BME280;3040;42.654;23.296;2023-02-16T12:47:28;95202.66;;;19.66;26.42
6024;BME280;3040;42.654;23.296;2023-02-16T12:49:59;95205.34;;;20.10;25.71
6024;BME280;3040;42.654;23.296;2023-02-16T12:52:34;95212.31;;;20.58;25.21
6024;BME280;3040;42.654;23.296;2023-02-16T12:55:18;95204.38;;;20.94;25.05
6024;BME280;3040;42.654;23.296;2023-02-16T12:57:52;95189.09;;;21.26;24.99
6024;BME280;3040;42.654;23.296;2023-02-16T13:00:35;95200.03;;;21.76;24.35
6024;BME280;3040;42.654;23.296;2023-02-16T13:03:14;95185.38;;;22.12;24.20
6024;BME280;3040;42.654;23.296;2023-02-16T13:05:50;95191.47;;;21.60;24.20
6024;BME280;3040;42.654;23.296;2023-02-16T13:08:28;95189.75;;;21.02;25.09
6024;BME280;3040;42.654;23.296;2023-02-16T13:11:09;95192.41;;;20.95;24.85
6024;BME280;3040;42.654;23.296;2023-02-16T13:13:37;95188.81;;;20.69;25.37
6024;BME280;3040;42.654;23.296;2023-02-16T13:16:07;95063.38;;;19.10;25.63
6024;BME280;3040;42.654;23.296;2023-02-16T13:18:39;95173.09;;;19.06;26.88
6024;BME280;3040;42.654;23.296;2023-02-16T13:21:13;95182.59;;;19.30;27.06
6024;BME280;3040;42.654;23.296;2023-02-16T13:23:57;95174.00;;;19.54;26.29
6024;BME280;3040;42.654;23.296;2023-02-16T13:26:38;95174.75;;;19.51;26.70
6024;BME280;3040;42.654;23.296;2023-02-16T13:29:40;95161.38;;;19.65;26.45
6024;BME280;3040;42.654;23.296;2023-02-16T13:32:33;95170.75;;;20.26;25.79
6024;BME280;3040;42.654;23.296;2023-02-16T13:35:15;95167.81;;;20.45;25.47
6024;BME280;3040;42.654;23.296;2023-02-16T13:38:00;95149.41;;;20.10;25.27
6024;BME280;3040;42.654;23.296;2023-02-16T13:40:54;95158.66;;;19.62;25.92
6024;BME280;3040;42.654;23.296;2023-02-16T13:43:30;95152.84;;;20.04;25.35